createdAt,value
2019-02-22T00:01:48.964Z,9.40
2019-02-22T00:04:29.361Z,9.20
2019-02-22T00:07:09.847Z,8.93
2019-02-22T00:09:50.615Z,8.73
2019-02-22T00:12:31.118Z,7.67
2019-02-22T00:15:11.959Z,9.07
2019-02-22T00:17:53.261Z,7.90
2019-02-22T00:20:34.441Z,7.20
2019-02-22T00:23:15.757Z,7.47
2019-02-22T00:25:56.888Z,7.60
2019-02-22T00:28:37.535Z,7.07
2019-02-22T00:31:17.987Z,7.77
2019-02-22T00:33:59.315Z,6.67
2019-02-22T00:36:40.090Z,7.03
2019-02-22T00:39:20.805Z,6.80
2019-02-22T00:42:01.591Z,6.67
2019-02-22T00:44:42.463Z,5.77
2019-02-22T00:47:23.263Z,6.50
2019-02-22T00:50:04.537Z,5.70
2019-02-22T00:52:45.180Z,6.40
2019-02-22T00:55:26.321Z,6.03
2019-02-22T00:58:07.685Z,6.17
2019-02-22T01:00:48.566Z,5.60
2019-02-22T01:03:29.293Z,5.67
2019-02-22T01:06:10.307Z,5.77
2019-02-22T01:08:51.269Z,4.50
2019-02-22T01:11:32.065Z,5.17
2019-02-22T01:14:12.897Z,4.30
2019-02-22T01:16:53.751Z,4.53
2019-02-22T01:19:34.743Z,3.90
2019-02-22T01:22:15.500Z,4.70
2019-02-22T01:24:56.007Z,5.27
2019-02-22T01:27:37.037Z,3.80
2019-02-22T01:30:17.519Z,4.90
2019-02-22T01:32:58.638Z,6.00
2019-02-22T01:35:39.605Z,3.50
2019-02-22T01:38:20.377Z,3.70
2019-02-22T01:41:01.243Z,4.03
2019-02-22T01:43:41.748Z,3.57
2019-02-22T01:46:22.620Z,4.07
2019-02-22T01:49:03.420Z,3.23
2019-02-22T01:51:44.199Z,3.30
2019-02-22T01:54:24.994Z,3.27
2019-02-22T01:57:05.716Z,3.73
2019-02-22T01:59:46.564Z,3.50
2019-02-22T02:02:27.244Z,3.43
2019-02-22T02:05:07.919Z,3.20
2019-02-22T02:07:48.773Z,3.43
2019-02-22T02:10:29.734Z,3.63
2019-02-22T02:13:10.585Z,3.50
2019-02-22T02:15:51.300Z,4.00
2019-02-22T02:18:32.022Z,3.60
2019-02-22T02:21:12.677Z,4.40
2019-02-22T02:23:53.283Z,3.93
2019-02-22T02:26:34.303Z,3.23
2019-02-22T02:29:14.883Z,3.60
2019-02-22T02:31:55.849Z,3.17
2019-02-22T02:34:36.494Z,2.60
2019-02-22T02:37:20.404Z,2.97
2019-02-22T02:40:02.102Z,2.50
2019-02-22T02:42:43.769Z,2.30
2019-02-22T02:45:25.330Z,2.67
2019-02-22T02:48:06.872Z,2.90
2019-02-22T02:50:47.511Z,2.80
2019-02-22T02:53:26.597Z,3.30
2019-02-22T02:56:14.602Z,2.93
2019-02-22T02:58:55.196Z,2.50
2019-02-22T03:01:36.027Z,2.50
2019-02-22T03:04:16.575Z,2.20
2019-02-22T03:07:02.423Z,1.67
2019-02-22T03:09:43.591Z,2.27
2019-02-22T03:12:24.345Z,2.50
2019-02-22T03:15:04.765Z,2.63
2019-02-22T03:17:45.472Z,2.17
2019-02-22T03:20:26.239Z,2.40
2019-02-22T03:23:06.637Z,2.10
2019-02-22T03:25:47.223Z,2.40
2019-02-22T03:28:27.771Z,2.33
2019-02-22T03:31:08.272Z,2.27
2019-02-22T03:33:49.106Z,2.20
2019-02-22T03:36:29.787Z,1.77
2019-02-22T03:39:10.909Z,2.07
2019-02-22T03:41:52.213Z,1.80
2019-02-22T03:44:32.975Z,2.20
2019-02-22T03:47:13.353Z,1.40
2019-02-22T03:49:54.231Z,2.37
2019-02-22T03:52:38.657Z,1.53
2019-02-22T03:55:19.292Z,1.50
2019-02-22T03:57:59.881Z,1.40
2019-02-22T04:00:40.645Z,1.53
2019-02-22T04:03:21.585Z,1.77
2019-02-22T04:06:02.299Z,1.70
2019-02-22T04:08:43.155Z,1.40
2019-02-22T04:11:23.560Z,2.07
2019-02-22T04:14:04.356Z,2.13
2019-02-22T04:16:44.996Z,1.73
2019-02-22T04:19:25.762Z,2.60
2019-02-22T04:22:06.172Z,2.03
2019-02-22T04:24:46.866Z,2.10
2019-02-22T04:27:27.503Z,2.30
2019-02-22T04:30:08.368Z,2.70
2019-02-22T04:32:49.327Z,2.40
2019-02-22T04:35:29.983Z,3.10
2019-02-22T04:38:11.110Z,4.90
2019-02-22T04:40:51.648Z,2.80
2019-02-22T04:43:32.444Z,3.93
2019-02-22T04:46:13.310Z,3.10
2019-02-22T04:48:53.812Z,3.30
2019-02-22T04:51:34.437Z,2.27
2019-02-22T04:54:15.324Z,4.53
2019-02-22T04:56:56.096Z,2.80
2019-02-22T04:59:36.993Z,3.20
2019-02-22T05:02:17.570Z,6.07
2019-02-22T05:04:58.325Z,4.30
2019-02-22T05:07:39.304Z,4.07
2019-02-22T05:10:20.545Z,3.90
2019-02-22T05:13:01.178Z,4.40
2019-02-22T05:15:42.016Z,4.70
2019-02-22T05:18:22.805Z,5.07
2019-02-22T05:21:03.692Z,4.23
2019-02-22T05:23:44.358Z,4.23
2019-02-22T05:26:25.280Z,4.77
2019-02-22T05:29:05.872Z,6.50
2019-02-22T05:31:46.837Z,6.30
2019-02-22T05:34:27.768Z,6.50
2019-02-22T05:37:08.220Z,6.63
2019-02-22T05:39:51.554Z,7.07
2019-02-22T05:42:32.876Z,6.67
2019-02-22T05:45:14.079Z,6.83
2019-02-22T05:47:54.809Z,6.93
2019-02-22T05:50:35.957Z,8.10
2019-02-22T05:53:16.779Z,7.47
2019-02-22T05:55:57.656Z,8.63
2019-02-22T05:58:38.450Z,7.90
2019-02-22T06:01:19.184Z,7.10
2019-02-22T06:04:00.605Z,8.57
2019-02-22T06:06:41.594Z,7.40
2019-02-22T06:09:22.964Z,7.17
2019-02-22T06:12:04.319Z,7.20
2019-02-22T06:14:45.184Z,7.10
2019-02-22T06:17:26.281Z,6.00
2019-02-22T06:20:07.118Z,6.30
2019-02-22T06:22:47.472Z,6.13
2019-02-22T06:25:28.209Z,6.17
2019-02-22T06:28:09.014Z,5.00
2019-02-22T06:30:50.154Z,5.00
2019-02-22T06:33:30.714Z,3.77
2019-02-22T06:36:11.568Z,4.10
2019-02-22T06:38:52.306Z,3.93
2019-02-22T06:41:33.121Z,3.97
2019-02-22T06:44:13.912Z,3.20
2019-02-22T06:46:54.836Z,3.00
2019-02-22T06:49:35.614Z,3.30
2019-02-22T06:52:16.258Z,2.70
2019-02-22T06:54:56.996Z,2.72
2019-02-22T06:57:37.652Z,2.15
2019-02-22T07:00:18.360Z,2.65
2019-02-22T07:02:59.506Z,2.47
2019-02-22T07:05:40.042Z,2.58
2019-02-22T07:08:20.736Z,2.58
2019-02-22T07:11:20.725Z,2.35
2019-02-22T07:14:01.543Z,2.45
2019-02-22T07:16:42.280Z,2.47
2019-02-22T07:19:23.211Z,2.05
2019-02-22T07:22:03.739Z,2.02
2019-02-22T07:24:44.882Z,2.40
2019-02-22T07:27:25.682Z,2.00
2019-02-22T07:30:06.522Z,1.87
2019-02-22T07:32:47.316Z,1.70
2019-02-22T07:35:27.964Z,1.50
2019-02-22T07:38:08.448Z,1.50
2019-02-22T07:40:49.190Z,0.80
2019-02-22T07:43:30.005Z,1.00
2019-02-22T07:46:10.722Z,1.40
2019-02-22T07:48:51.324Z,1.55
2019-02-22T07:51:32.088Z,0.90
2019-02-22T07:54:12.722Z,1.50
2019-02-22T07:56:53.311Z,1.57
2019-02-22T07:59:34.261Z,1.55
2019-02-22T08:02:15.251Z,1.10
2019-02-22T08:04:55.859Z,1.40
2019-02-22T08:07:36.742Z,1.30
2019-02-22T08:10:17.139Z,1.40
2019-02-22T08:12:57.630Z,1.67
2019-02-22T08:15:38.292Z,1.80
2019-02-22T08:18:18.870Z,1.05
2019-02-22T08:20:59.992Z,1.27
2019-02-22T08:23:40.885Z,1.47
2019-02-22T08:26:09.958Z,1.02
2019-02-22T08:28:58.098Z,1.20
2019-02-22T08:31:46.210Z,1.10
2019-02-22T08:34:27.632Z,1.35
2019-02-22T08:37:08.603Z,1.45
2019-02-22T08:39:58.308Z,1.07
2019-02-22T08:42:31.986Z,1.55
2019-02-22T08:45:12.966Z,0.98
2019-02-22T08:47:53.782Z,1.50
2019-02-22T08:50:34.666Z,1.07
2019-02-22T08:53:15.703Z,0.80
2019-02-22T08:55:56.510Z,1.10
2019-02-22T08:58:37.274Z,1.00
2019-02-22T09:01:18.175Z,0.85
2019-02-22T09:03:58.696Z,1.55
2019-02-22T09:06:39.618Z,1.10
2019-02-22T09:09:20.326Z,1.00
2019-02-22T09:12:01.155Z,1.02
2019-02-22T09:14:41.990Z,0.88
2019-02-22T09:17:22.622Z,0.93
2019-02-22T09:20:03.316Z,3.30
2019-02-22T09:22:44.043Z,1.12
2019-02-22T09:25:24.860Z,1.37
2019-02-22T09:28:05.714Z,0.70
2019-02-22T09:30:46.488Z,0.75
2019-02-22T09:33:27.231Z,1.10
2019-02-22T09:36:08.044Z,1.17
2019-02-22T09:38:48.673Z,0.90
2019-02-22T09:41:29.624Z,1.05
2019-02-22T09:44:10.301Z,1.02
2019-02-22T09:46:50.905Z,1.12
2019-02-22T09:49:31.668Z,0.82
2019-02-22T09:52:12.519Z,1.20
2019-02-22T09:54:53.977Z,1.47
2019-02-22T09:57:35.390Z,1.27
2019-02-22T10:00:16.558Z,0.90
2019-02-22T10:02:57.118Z,1.15
2019-02-22T10:05:37.790Z,1.10
2019-02-22T10:08:18.580Z,1.05
2019-02-22T10:10:59.402Z,0.70
2019-02-22T10:13:40.195Z,1.17
2019-02-22T10:16:21.039Z,1.15
2019-02-22T10:19:01.782Z,0.80
2019-02-22T10:21:42.338Z,1.20
2019-02-22T10:24:23.143Z,2.75
2019-02-22T10:27:03.894Z,1.17
2019-02-22T10:29:44.756Z,1.22
2019-02-22T10:32:25.432Z,0.95
2019-02-22T10:35:06.105Z,1.77
2019-02-22T10:37:46.607Z,0.72
2019-02-22T10:40:27.501Z,1.00
2019-02-22T10:43:08.869Z,0.80
2019-02-22T10:45:49.919Z,1.40
2019-02-22T10:48:30.380Z,1.27
2019-02-22T10:51:11.201Z,1.05
2019-02-22T10:53:51.920Z,0.98
2019-02-22T10:56:32.834Z,1.02
2019-02-22T10:59:13.591Z,1.05
2019-02-22T11:01:54.695Z,1.72
2019-02-22T11:04:35.185Z,1.40
2019-02-22T11:07:16.078Z,1.42
2019-02-22T11:09:57.248Z,0.95
2019-02-22T11:12:26.215Z,0.90
2019-02-22T11:14:55.080Z,0.90
2019-02-22T11:17:23.843Z,1.20
2019-02-22T11:19:52.649Z,0.95
2019-02-22T11:22:21.433Z,0.93
2019-02-22T11:24:50.226Z,1.17
2019-02-22T11:27:19.071Z,0.80
2019-02-22T11:29:49.365Z,1.30
2019-02-22T11:32:18.355Z,1.22
2019-02-22T11:34:47.123Z,1.20
2019-02-22T11:37:15.922Z,1.25
2019-02-22T11:39:44.674Z,0.98
2019-02-22T11:42:13.471Z,1.22
2019-02-22T11:44:42.261Z,1.20
2019-02-22T11:47:11.017Z,1.10
2019-02-22T11:49:39.799Z,1.00
2019-02-22T11:52:08.589Z,1.15
2019-02-22T11:54:37.477Z,0.93
2019-02-22T11:57:06.635Z,1.50
2019-02-22T11:59:35.499Z,1.50
2019-02-22T12:02:04.529Z,1.40
2019-02-22T12:04:33.314Z,1.00
2019-02-22T12:07:02.180Z,1.35
2019-02-22T12:09:31.573Z,2.20
2019-02-22T12:12:00.410Z,2.83
2019-02-22T12:14:29.313Z,1.92
2019-02-22T12:16:59.036Z,1.60
2019-02-22T12:19:27.829Z,1.10
2019-02-22T12:21:56.606Z,1.40
2019-02-22T12:24:27.450Z,1.50
2019-02-22T12:27:05.407Z,1.57
2019-02-22T12:29:34.205Z,0.80
2019-02-22T12:32:03.574Z,1.15
2019-02-22T12:34:32.385Z,1.00
2019-02-22T12:37:01.233Z,0.95
2019-02-22T12:39:32.731Z,1.07
2019-02-22T12:42:01.981Z,1.35
2019-02-22T12:44:30.951Z,1.50
2019-02-22T12:46:59.821Z,6.03
2019-02-22T12:49:28.649Z,1.37
2019-02-22T12:51:57.659Z,1.67
2019-02-22T12:54:26.679Z,1.70
2019-02-22T12:56:58.265Z,3.30
2019-02-22T12:59:28.867Z,1.40
2019-02-22T13:01:57.694Z,0.80
2019-02-22T13:04:26.749Z,1.50
2019-02-22T13:06:55.620Z,1.30
2019-02-22T13:09:24.431Z,1.47
2019-02-22T13:11:55.571Z,1.50
2019-02-22T13:14:24.497Z,1.30
2019-02-22T13:16:53.279Z,1.20
2019-02-22T13:19:22.071Z,1.50
2019-02-22T13:21:51.029Z,1.53
2019-02-22T13:24:22.052Z,1.53
2019-02-22T13:26:50.837Z,1.47
2019-02-22T13:29:19.859Z,1.50
2019-02-22T13:31:48.725Z,1.40
2019-02-22T13:34:17.975Z,1.17
2019-02-22T13:36:49.371Z,1.33
2019-02-22T13:39:18.144Z,1.20
2019-02-22T13:41:52.106Z,1.50
2019-02-22T13:44:21.559Z,1.22
2019-02-22T13:46:50.378Z,1.57
2019-02-22T13:49:19.216Z,1.40
2019-02-22T13:51:48.098Z,1.43
2019-02-22T13:54:17.121Z,1.43
2019-02-22T13:56:45.943Z,1.10
2019-02-22T13:59:14.718Z,1.53
2019-02-22T14:01:46.355Z,1.40
2019-02-22T14:04:22.973Z,1.80
2019-02-22T14:06:51.758Z,1.43
2019-02-22T14:09:20.586Z,1.50
2019-02-22T14:11:49.458Z,1.20
2019-02-22T14:14:18.623Z,1.40
2019-02-22T14:16:47.457Z,1.43
2019-02-22T14:19:16.261Z,1.63
2019-02-22T14:21:45.042Z,1.53
2019-02-22T14:24:13.883Z,1.80
2019-02-22T14:26:44.178Z,1.10
2019-02-22T14:29:14.249Z,1.30
2019-02-22T14:31:43.143Z,1.33
2019-02-22T14:34:11.983Z,1.40
2019-02-22T14:36:41.193Z,1.70
2019-02-22T14:39:10.138Z,1.53
2019-02-22T14:41:39.012Z,1.77
2019-02-22T14:44:07.935Z,1.30
2019-02-22T14:46:36.726Z,1.60
2019-02-22T14:49:05.577Z,1.43
2019-02-22T14:51:34.391Z,1.57
2019-02-22T14:54:03.296Z,1.87
2019-02-22T14:56:32.237Z,1.20
2019-02-22T14:59:01.037Z,1.40
2019-02-22T15:01:29.935Z,2.10
2019-02-22T15:04:01.527Z,1.50
2019-02-22T15:06:30.299Z,1.42
2019-02-22T15:09:00.457Z,1.55
2019-02-22T15:11:31.177Z,0.97
2019-02-22T15:14:02.405Z,1.70
2019-02-22T15:16:53.096Z,1.67
2019-02-22T15:19:23.359Z,1.62
2019-02-22T15:21:52.314Z,1.65
2019-02-22T15:24:21.283Z,1.30
2019-02-22T15:26:50.178Z,1.50
2019-02-22T15:29:19.217Z,1.90
2019-02-22T15:31:48.129Z,1.23
2019-02-22T15:34:16.999Z,1.30
2019-02-22T15:36:45.879Z,1.70
2019-02-22T15:39:14.860Z,1.65
2019-02-22T15:41:43.720Z,1.75
2019-02-22T15:44:12.681Z,1.70
2019-02-22T15:46:43.937Z,2.10
2019-02-22T15:49:12.869Z,1.92
2019-02-22T15:51:41.911Z,1.57
2019-02-22T15:54:10.913Z,1.47
2019-02-22T15:56:39.881Z,2.02
2019-02-22T15:59:08.758Z,2.15
2019-02-22T16:01:37.663Z,1.75
2019-02-22T16:04:14.743Z,1.80
2019-02-22T16:06:43.579Z,1.52
2019-02-22T16:09:12.603Z,1.65
2019-02-22T16:11:41.675Z,1.57
2019-02-22T16:14:10.763Z,1.85
2019-02-22T16:16:39.914Z,2.22
2019-02-22T16:19:08.923Z,1.87
2019-02-22T16:21:37.894Z,1.77
2019-02-22T16:24:16.885Z,1.72
2019-02-22T16:26:45.836Z,1.60
2019-02-22T16:29:14.891Z,1.55
2019-02-22T16:31:43.794Z,2.15
2019-02-22T16:34:12.736Z,2.05
2019-02-22T16:36:41.689Z,3.08
2019-02-22T16:39:28.044Z,2.35
2019-02-22T16:41:58.827Z,1.98
2019-02-22T16:44:33.292Z,1.90
2019-02-22T16:47:02.627Z,1.55
2019-02-22T16:49:31.656Z,1.87
2019-02-22T16:52:00.696Z,1.92
2019-02-22T16:54:32.746Z,1.80
2019-02-22T16:57:05.838Z,1.80
2019-02-22T16:59:34.690Z,2.12
2019-02-22T17:02:03.509Z,1.55
2019-02-22T17:04:44.688Z,1.75
2019-02-22T17:07:13.592Z,2.05
2019-02-22T17:09:42.491Z,2.40
2019-02-22T17:12:11.348Z,2.60
2019-02-22T17:14:40.340Z,1.40
2019-02-22T17:17:09.283Z,1.95
2019-02-22T17:19:38.058Z,2.60
2019-02-22T17:22:10.451Z,9.58
2019-02-22T17:24:43.124Z,3.72
2019-02-22T17:27:15.940Z,2.40
2019-02-22T17:29:44.877Z,2.27
2019-02-22T17:32:15.346Z,2.10
2019-02-22T17:34:52.803Z,1.82
2019-02-22T17:37:34.060Z,2.70
2019-02-22T17:40:05.318Z,1.90
2019-02-22T17:42:42.108Z,2.70
2019-02-22T17:45:27.407Z,2.10
2019-02-22T17:47:56.271Z,2.12
2019-02-22T17:50:25.237Z,2.22
2019-02-22T17:52:55.977Z,1.87
2019-02-22T17:55:24.930Z,2.33
2019-02-22T17:57:53.860Z,2.30
2019-02-22T18:00:24.254Z,2.42
2019-02-22T18:02:53.204Z,2.12
2019-02-22T18:05:22.191Z,2.67
2019-02-22T18:07:50.976Z,2.35
2019-02-22T18:10:19.866Z,2.00
2019-02-22T18:12:48.799Z,2.83
2019-02-22T18:15:17.848Z,2.30
2019-02-22T18:17:47.199Z,1.92
2019-02-22T18:20:16.140Z,2.90
2019-02-22T18:22:45.105Z,3.12
2019-02-22T18:25:14.236Z,2.70
2019-02-22T18:27:43.155Z,2.02
2019-02-22T18:30:12.509Z,3.12
2019-02-22T18:32:41.348Z,2.55
2019-02-22T18:35:10.313Z,2.60
2019-02-22T18:37:39.312Z,1.80
2019-02-22T18:40:10.642Z,2.95
2019-02-22T18:42:39.465Z,3.00
2019-02-22T18:45:08.631Z,2.10
2019-02-22T18:47:37.505Z,2.10
2019-02-22T18:50:07.441Z,2.22
2019-02-22T18:52:36.398Z,1.90
2019-02-22T18:55:08.546Z,2.02
2019-02-22T18:57:37.390Z,2.30
2019-02-22T19:00:08.320Z,2.35
2019-02-22T19:02:56.270Z,3.67
2019-02-22T19:05:25.236Z,2.90
2019-02-22T19:07:56.902Z,2.90
2019-02-22T19:10:25.948Z,2.42
2019-02-22T19:12:54.909Z,3.02
2019-02-22T19:15:23.874Z,2.25
2019-02-22T19:17:52.854Z,2.47
2019-02-22T19:20:21.917Z,3.35
2019-02-22T19:22:51.006Z,3.10
2019-02-22T19:25:20.013Z,3.02
2019-02-22T19:27:49.682Z,3.12
2019-02-22T19:30:18.621Z,2.25
2019-02-22T19:32:47.479Z,4.03
2019-02-22T19:35:16.455Z,2.72
2019-02-22T19:37:45.363Z,2.60
2019-02-22T19:40:16.224Z,3.20
2019-02-22T19:42:45.110Z,2.95
2019-02-22T19:45:14.100Z,2.55
2019-02-22T19:47:43.002Z,2.55
2019-02-22T19:50:12.590Z,3.15
2019-02-22T19:52:41.993Z,2.33
2019-02-22T19:55:12.115Z,3.05
2019-02-22T19:57:41.330Z,3.47
2019-02-22T20:00:16.932Z,3.17
2019-02-22T20:02:45.923Z,2.75
2019-02-22T20:05:14.803Z,2.77
2019-02-22T20:07:54.084Z,2.70
2019-02-22T20:10:23.201Z,4.03
2019-02-22T20:12:52.282Z,2.72
2019-02-22T20:15:21.235Z,4.25
2019-02-22T20:17:54.640Z,3.37
2019-02-22T20:20:23.515Z,3.25
2019-02-22T20:22:52.882Z,4.10
2019-02-22T20:25:21.955Z,3.67
2019-02-22T20:27:50.974Z,3.45
2019-02-22T20:30:20.265Z,2.77
2019-02-22T20:32:49.166Z,2.65
2019-02-22T20:35:21.099Z,2.83
2019-02-22T20:37:53.112Z,3.22
2019-02-22T20:40:21.360Z,3.22
2019-02-22T20:42:50.433Z,3.08
2019-02-22T20:45:19.451Z,3.27
2019-02-22T20:47:48.427Z,3.10
2019-02-22T20:50:17.431Z,2.75
2019-02-22T20:52:46.391Z,4.00
2019-02-22T20:55:15.432Z,2.62
2019-02-22T20:57:44.744Z,4.10
2019-02-22T21:00:15.810Z,3.62
2019-02-22T21:02:44.821Z,6.60
2019-02-22T21:05:13.981Z,3.15
2019-02-22T21:07:43.272Z,2.62
2019-02-22T21:10:13.826Z,3.52
2019-02-22T21:12:43.622Z,3.75
2019-02-22T21:15:12.873Z,4.10
2019-02-22T21:17:41.883Z,3.27
2019-02-22T21:20:14.124Z,3.40
2019-02-22T21:22:43.433Z,4.00
2019-02-22T21:25:12.991Z,4.17
2019-02-22T21:27:44.794Z,3.60
2019-02-22T21:30:14.262Z,4.03
2019-02-22T21:32:43.380Z,5.35
2019-02-22T21:35:12.350Z,4.75
2019-02-22T21:37:41.640Z,4.03
2019-02-22T21:40:10.676Z,3.45
2019-02-22T21:42:39.543Z,4.10
2019-02-22T21:45:08.911Z,4.05
2019-02-22T21:47:37.770Z,3.80
2019-02-22T21:50:08.145Z,3.33
2019-02-22T21:52:44.742Z,4.85
2019-02-22T21:55:13.728Z,4.12
2019-02-22T21:57:45.020Z,4.12
2019-02-22T22:00:15.924Z,4.58
2019-02-22T22:02:44.977Z,5.05
2019-02-22T22:05:15.259Z,8.70
2019-02-22T22:07:44.220Z,4.25
2019-02-22T22:10:12.825Z,5.03
2019-02-22T22:12:41.737Z,4.67
2019-02-22T22:15:11.060Z,3.30
2019-02-22T22:17:42.286Z,3.52
2019-02-22T22:20:18.294Z,3.20
2019-02-22T22:23:00.604Z,4.05
2019-02-22T22:25:29.730Z,3.72
2019-02-22T22:27:59.028Z,3.33
2019-02-22T22:30:27.946Z,4.17
2019-02-22T22:32:58.479Z,3.35
2019-02-22T22:35:28.013Z,2.77
2019-02-22T22:37:58.203Z,4.45
2019-02-22T22:40:27.086Z,4.33
2019-02-22T22:42:55.927Z,3.58
2019-02-22T22:45:24.921Z,3.27
2019-02-22T22:47:53.850Z,3.20
2019-02-22T22:50:22.766Z,2.87
2019-02-22T22:52:51.572Z,2.80
2019-02-22T22:55:20.591Z,3.25
2019-02-22T22:57:49.545Z,3.10
2019-02-22T23:00:54.635Z,3.70
2019-02-22T23:03:23.583Z,3.50
2019-02-22T23:05:52.475Z,3.30
2019-02-22T23:08:21.335Z,3.75
2019-02-22T23:10:50.712Z,3.30
2019-02-22T23:13:19.738Z,2.80
2019-02-22T23:15:48.514Z,2.80
2019-02-22T23:18:17.503Z,5.35
2019-02-22T23:20:46.309Z,3.40
2019-02-22T23:23:15.160Z,3.15
2019-02-22T23:25:43.939Z,2.45
2019-02-22T23:28:12.764Z,3.42
2019-02-22T23:30:41.626Z,3.10
2019-02-22T23:33:10.622Z,2.90
2019-02-22T23:35:39.443Z,3.45
2019-02-22T23:38:08.295Z,3.45
2019-02-22T23:40:37.109Z,2.90
2019-02-22T23:43:06.040Z,3.67
2019-02-22T23:45:34.880Z,4.05
2019-02-22T23:48:03.994Z,3.22
2019-02-22T23:50:32.883Z,2.58
2019-02-22T23:53:01.935Z,3.10
2019-02-22T23:55:30.926Z,3.45
2019-02-22T23:57:59.871Z,3.30
